createdAt,value
2018-06-13T00:01:21.106Z,100127.56
2018-06-13T00:03:50.724Z,100115.64
2018-06-13T00:06:20.845Z,100124.05
2018-06-13T00:08:50.431Z,100128.55
2018-06-13T00:11:20.229Z,100131.50
2018-06-13T00:13:49.964Z,100126.33
2018-06-13T00:16:19.655Z,100128.27
2018-06-13T00:18:49.283Z,100127.18
2018-06-13T00:21:18.974Z,100135.41
2018-06-13T00:23:48.798Z,100123.44
2018-06-13T00:26:18.486Z,100130.77
2018-06-13T00:28:48.204Z,100129.64
2018-06-13T00:31:17.905Z,100125.20
2018-06-13T00:33:47.742Z,100126.47
2018-06-13T00:36:17.338Z,100128.66
2018-06-13T00:38:47.104Z,100121.23
2018-06-13T00:41:16.749Z,100132.09
2018-06-13T00:43:46.361Z,100135.63
2018-06-13T00:46:15.920Z,100128.22
2018-06-13T00:48:45.566Z,100133.84
2018-06-13T00:51:15.181Z,100131.45
2018-06-13T00:53:44.760Z,100130.61
2018-06-13T00:56:25.579Z,100129.80
2018-06-13T00:58:55.420Z,100134.22
2018-06-13T01:01:25.374Z,100136.37
2018-06-13T01:03:55.152Z,100140.36
2018-06-13T01:06:25.029Z,100139.08
2018-06-13T01:08:54.743Z,100131.53
2018-06-13T01:11:24.462Z,100133.75
2018-06-13T01:13:54.082Z,100140.24
2018-06-13T01:16:23.645Z,100138.50
2018-06-13T01:18:53.312Z,100136.64
2018-06-13T01:21:22.866Z,100133.49
2018-06-13T01:23:52.486Z,100129.44
2018-06-13T01:26:22.036Z,100134.38
2018-06-13T01:28:51.656Z,100130.61
2018-06-13T01:31:21.339Z,100126.53
2018-06-13T01:33:50.939Z,100124.67
2018-06-13T01:36:28.231Z,100129.16
2018-06-13T01:38:58.214Z,100131.70
2018-06-13T01:41:28.397Z,100135.72
2018-06-13T01:43:58.003Z,100128.55
2018-06-13T01:46:27.889Z,100134.09
2018-06-13T01:48:57.774Z,100134.73
2018-06-13T01:51:27.432Z,100128.67
2018-06-13T01:53:57.170Z,100132.03
2018-06-13T01:56:26.916Z,100132.32
2018-06-13T01:58:56.873Z,100127.41
2018-06-13T02:01:26.438Z,100125.80
2018-06-13T02:03:56.053Z,100128.96
2018-06-13T02:06:25.786Z,100123.05
2018-06-13T02:08:55.423Z,100130.89
2018-06-13T02:11:25.061Z,100127.38
2018-06-13T02:13:54.632Z,100127.98
2018-06-13T02:16:24.198Z,100135.92
2018-06-13T02:18:53.800Z,100126.52
2018-06-13T02:21:23.340Z,100132.08
2018-06-13T02:23:52.967Z,100135.47
2018-06-13T02:26:22.545Z,100136.41
2018-06-13T02:28:52.250Z,100134.58
2018-06-13T02:31:21.834Z,100137.78
2018-06-13T02:33:51.448Z,100133.81
2018-06-13T02:36:21.013Z,100145.39
2018-06-13T02:38:50.975Z,100138.83
2018-06-13T02:41:20.583Z,100133.20
2018-06-13T02:43:50.289Z,100128.87
2018-06-13T02:46:19.907Z,100134.09
2018-06-13T02:48:49.540Z,100133.53
2018-06-13T02:51:19.178Z,100131.11
2018-06-13T02:53:48.895Z,100135.35
2018-06-13T02:56:18.639Z,100136.44
2018-06-13T02:58:49.540Z,100132.67
2018-06-13T03:01:19.968Z,100134.50
2018-06-13T03:03:49.906Z,100132.97
2018-06-13T03:06:19.592Z,100131.27
2018-06-13T03:08:49.039Z,100130.53
2018-06-13T03:11:18.733Z,100128.87
2018-06-13T03:13:48.933Z,100131.50
2018-06-13T03:16:18.595Z,100125.23
2018-06-13T03:18:48.398Z,100122.52
2018-06-13T03:21:18.368Z,100130.58
2018-06-13T03:23:48.286Z,100131.79
2018-06-13T03:26:18.101Z,100133.77
2018-06-13T03:28:47.775Z,100129.36
2018-06-13T03:31:17.784Z,100135.55
2018-06-13T03:33:48.138Z,100135.87
2018-06-13T03:36:17.924Z,100134.59
2018-06-13T03:38:47.502Z,100132.76
2018-06-13T03:41:17.249Z,100134.70
2018-06-13T03:43:46.856Z,100136.61
2018-06-13T03:46:16.647Z,100139.92
2018-06-13T03:48:46.289Z,100133.61
2018-06-13T03:51:22.704Z,100129.72
2018-06-13T03:53:52.365Z,100136.20
2018-06-13T03:56:22.032Z,100142.31
2018-06-13T03:58:51.645Z,100142.98
2018-06-13T04:01:21.343Z,100146.08
2018-06-13T04:03:51.717Z,100144.21
2018-06-13T04:06:21.382Z,100143.69
2018-06-13T04:08:51.156Z,100144.63
2018-06-13T04:11:20.805Z,100147.77
2018-06-13T04:13:50.569Z,100146.28
2018-06-13T04:16:20.407Z,100140.41
2018-06-13T04:18:49.701Z,100143.81
2018-06-13T04:21:19.444Z,100146.80
2018-06-13T04:23:49.032Z,100147.25
2018-06-13T04:26:18.691Z,100152.83
2018-06-13T04:28:48.360Z,100152.63
2018-06-13T04:31:17.981Z,100152.34
2018-06-13T04:33:47.775Z,100151.58
2018-06-13T04:36:17.381Z,100141.58
2018-06-13T04:38:48.031Z,100145.06
2018-06-13T04:41:17.757Z,100143.58
2018-06-13T04:43:47.399Z,100145.99
2018-06-13T04:46:16.962Z,100150.36
2018-06-13T04:48:46.971Z,100144.33
2018-06-13T04:51:16.751Z,100150.41
2018-06-13T04:53:46.826Z,100150.13
2018-06-13T04:56:16.354Z,100150.00
2018-06-13T04:58:46.397Z,100155.41
2018-06-13T05:01:16.091Z,100162.87
2018-06-13T05:03:45.985Z,100167.52
2018-06-13T05:06:17.856Z,100169.67
2018-06-13T05:08:47.907Z,100179.27
2018-06-13T05:11:17.571Z,100175.97
2018-06-13T05:13:47.596Z,100172.73
2018-06-13T05:16:17.574Z,100172.05
2018-06-13T05:18:47.920Z,100167.98
2018-06-13T05:21:18.105Z,100170.59
2018-06-13T05:23:48.255Z,100170.42
2018-06-13T05:26:17.898Z,100167.20
2018-06-13T05:28:47.902Z,100170.92
2018-06-13T05:31:17.484Z,100166.52
2018-06-13T05:33:47.216Z,100163.55
2018-06-13T05:36:16.920Z,100169.13
2018-06-13T05:38:46.895Z,100172.33
2018-06-13T05:41:16.709Z,100170.52
2018-06-13T05:43:46.318Z,100170.22
2018-06-13T05:46:16.002Z,100167.80
2018-06-13T05:48:45.668Z,100174.66
2018-06-13T05:51:15.402Z,100176.97
2018-06-13T05:53:45.069Z,100186.30
2018-06-13T05:56:14.695Z,100191.61
2018-06-13T05:58:44.349Z,100193.11
2018-06-13T06:01:14.135Z,100193.99
2018-06-13T06:03:43.709Z,100196.59
2018-06-13T06:06:13.565Z,100201.08
2018-06-13T06:08:43.410Z,100200.09
2018-06-13T06:11:12.721Z,100198.36
2018-06-13T06:13:42.333Z,100199.56
2018-06-13T06:16:12.750Z,100196.80
2018-06-13T06:18:42.365Z,100196.55
2018-06-13T06:21:12.029Z,100197.59
2018-06-13T06:23:41.699Z,100203.64
2018-06-13T06:26:11.410Z,100209.81
2018-06-13T06:28:41.540Z,100215.21
2018-06-13T06:31:11.119Z,100215.33
2018-06-13T06:33:41.001Z,100211.53
2018-06-13T06:36:10.751Z,100214.69
2018-06-13T06:38:40.433Z,100215.61
2018-06-13T06:41:10.094Z,100218.12
2018-06-13T06:43:39.782Z,100220.86
2018-06-13T06:46:09.436Z,100220.94
2018-06-13T06:48:39.131Z,100225.05
2018-06-13T06:51:08.795Z,100222.75
2018-06-13T06:53:38.397Z,100225.72
2018-06-13T06:56:07.994Z,100224.61
2018-06-13T06:58:38.149Z,100227.66
2018-06-13T07:01:07.824Z,100222.48
2018-06-13T07:03:37.587Z,100231.25
2018-06-13T07:06:07.226Z,100235.90
2018-06-13T07:08:36.863Z,100223.28
2018-06-13T07:11:06.573Z,100232.47
2018-06-13T07:13:36.176Z,100235.80
2018-06-13T07:16:05.849Z,100238.56
2018-06-13T07:18:35.536Z,100236.14
2018-06-13T07:21:09.372Z,100235.33
2018-06-13T07:23:39.142Z,100228.02
2018-06-13T07:26:08.856Z,100230.56
2018-06-13T07:28:38.592Z,100230.80
2018-06-13T07:31:08.200Z,100235.95
2018-06-13T07:33:37.880Z,100234.48
2018-06-13T07:36:12.245Z,100247.05
2018-06-13T07:38:41.870Z,100242.65
2018-06-13T07:41:11.460Z,100249.72
2018-06-13T07:43:41.038Z,100247.16
2018-06-13T07:46:11.073Z,100246.16
2018-06-13T07:48:40.667Z,100254.53
2018-06-13T07:51:10.294Z,100246.80
2018-06-13T07:53:39.893Z,100249.23
2018-06-13T07:56:09.521Z,100253.70
2018-06-13T07:58:39.150Z,100263.50
2018-06-13T08:01:08.921Z,100258.28
2018-06-13T08:03:38.544Z,100263.52
2018-06-13T08:06:08.504Z,100263.95
2018-06-13T08:08:38.108Z,100263.79
2018-06-13T08:11:07.794Z,100264.63
2018-06-13T08:13:37.548Z,100271.48
2018-06-13T08:16:07.404Z,100269.94
2018-06-13T08:18:37.509Z,100277.41
2018-06-13T08:21:07.348Z,100272.22
2018-06-13T08:23:37.113Z,100280.67
2018-06-13T08:26:06.797Z,100278.71
2018-06-13T08:28:36.488Z,100271.54
2018-06-13T08:31:06.575Z,100270.26
2018-06-13T08:33:36.352Z,100278.14
2018-06-13T08:36:06.081Z,100282.52
2018-06-13T08:38:35.774Z,100283.41
2018-06-13T08:41:05.133Z,100286.29
2018-06-13T08:43:34.890Z,100284.21
2018-06-13T08:46:04.740Z,100278.63
2018-06-13T08:48:34.789Z,100277.38
2018-06-13T08:51:04.411Z,100275.74
2018-06-13T08:53:34.100Z,100270.02
2018-06-13T08:56:03.782Z,100280.42
2018-06-13T08:58:33.519Z,100274.38
2018-06-13T09:01:03.199Z,100274.56
2018-06-13T09:03:32.777Z,100280.06
2018-06-13T09:06:02.383Z,100281.39
2018-06-13T09:08:32.012Z,100269.13
2018-06-13T09:11:01.723Z,100270.09
2018-06-13T09:13:31.425Z,100266.16
2018-06-13T09:16:01.260Z,100265.88
2018-06-13T09:18:30.897Z,100262.28
2018-06-13T09:21:00.495Z,100263.67
2018-06-13T09:23:30.156Z,100266.23
2018-06-13T09:25:59.790Z,100274.25
2018-06-13T09:28:29.428Z,100261.58
2018-06-13T09:30:59.116Z,100267.83
2018-06-13T09:33:28.805Z,100265.59
2018-06-13T09:35:58.449Z,100258.28
2018-06-13T09:38:28.185Z,100262.97
2018-06-13T09:40:58.106Z,100261.27
2018-06-13T09:43:27.788Z,100261.45
2018-06-13T09:46:03.397Z,100261.88
2018-06-13T09:48:27.149Z,100266.70
2018-06-13T09:50:56.821Z,100271.25
2018-06-13T09:53:26.500Z,100268.05
2018-06-13T09:55:56.203Z,100274.74
2018-06-13T09:58:25.942Z,100271.56
2018-06-13T10:01:00.624Z,100268.56
2018-06-13T10:03:30.273Z,100275.98
2018-06-13T10:06:00.003Z,100278.22
2018-06-13T10:08:29.791Z,100276.10
2018-06-13T10:10:59.398Z,100274.92
2018-06-13T10:13:29.221Z,100277.44
2018-06-13T10:15:58.948Z,100276.77
2018-06-13T10:18:28.691Z,100282.23
2018-06-13T10:20:58.446Z,100283.09
2018-06-13T10:23:28.502Z,100278.61
2018-06-13T10:25:58.180Z,100272.72
2018-06-13T10:28:27.911Z,100282.55
2018-06-13T10:30:57.595Z,100283.98
2018-06-13T10:33:27.598Z,100279.39
2018-06-13T10:35:57.231Z,100278.33
2018-06-13T10:38:26.973Z,100288.80
2018-06-13T10:40:56.647Z,100284.97
2018-06-13T10:43:26.412Z,100284.84
2018-06-13T10:45:56.120Z,100286.07
2018-06-13T10:48:26.028Z,100286.44
2018-06-13T10:50:55.692Z,100276.07
2018-06-13T10:53:25.301Z,100279.91
2018-06-13T10:55:54.909Z,100283.89
2018-06-13T10:58:24.736Z,100277.84
2018-06-13T11:00:54.345Z,100280.72
2018-06-13T11:03:24.053Z,100283.56
2018-06-13T11:05:53.803Z,100283.45
2018-06-13T11:08:23.419Z,100285.69
2018-06-13T11:10:53.026Z,100293.75
2018-06-13T11:13:22.662Z,100288.13
2018-06-13T11:15:52.350Z,100294.33
2018-06-13T11:18:21.985Z,100290.86
2018-06-13T11:20:51.685Z,100286.56
2018-06-13T11:23:21.521Z,100294.84
2018-06-13T11:25:51.171Z,100297.56
2018-06-13T11:28:21.076Z,100305.91
2018-06-13T11:30:50.797Z,100306.86
2018-06-13T11:33:20.449Z,100310.98
2018-06-13T11:35:50.103Z,100306.05
2018-06-13T11:38:19.792Z,100301.87
2018-06-13T11:40:49.596Z,100301.44
2018-06-13T11:43:19.229Z,100298.96
2018-06-13T11:45:48.834Z,100306.31
2018-06-13T11:48:18.725Z,100300.77
2018-06-13T11:50:48.363Z,100297.47
2018-06-13T11:53:17.972Z,100302.22
2018-06-13T11:55:47.569Z,100296.12
2018-06-13T11:58:17.209Z,100300.52
2018-06-13T12:00:46.824Z,100294.41
2018-06-13T12:03:16.500Z,100301.94
2018-06-13T12:05:46.236Z,100302.18
2018-06-13T12:08:15.992Z,100296.50
2018-06-13T12:10:45.889Z,100287.87
2018-06-13T12:13:15.469Z,100288.59
2018-06-13T12:15:45.146Z,100292.27
2018-06-13T12:18:14.906Z,100295.91
2018-06-13T12:20:44.534Z,100291.64
2018-06-13T12:23:14.122Z,100293.87
2018-06-13T12:25:43.705Z,100291.23
2018-06-13T12:28:13.320Z,100286.72
2018-06-13T12:30:42.903Z,100294.50
2018-06-13T12:33:12.464Z,100295.94
2018-06-13T12:35:42.190Z,100302.55
2018-06-13T12:38:11.946Z,100291.72
2018-06-13T12:40:41.641Z,100294.98
2018-06-13T12:43:11.416Z,100298.41
2018-06-13T12:45:41.072Z,100294.47
2018-06-13T12:48:12.106Z,100293.16
2018-06-13T12:50:41.937Z,100289.69
2018-06-13T12:53:11.713Z,100292.17
2018-06-13T12:55:41.345Z,100292.97
2018-06-13T12:58:11.142Z,100297.84
2018-06-13T13:00:40.855Z,100297.39
2018-06-13T13:03:10.847Z,100305.13
2018-06-13T13:05:40.581Z,100298.64
2018-06-13T13:08:10.395Z,100295.79
2018-06-13T13:10:40.278Z,100308.37
2018-06-13T13:13:10.168Z,100303.69
2018-06-13T13:15:40.291Z,100305.77
2018-06-13T13:18:09.935Z,100301.64
2018-06-13T13:20:39.667Z,100298.13
2018-06-13T13:23:09.404Z,100293.02
2018-06-13T13:25:39.460Z,100300.42
2018-06-13T13:28:09.062Z,100296.23
2018-06-13T13:30:45.501Z,100293.11
2018-06-13T13:33:15.077Z,100301.46
2018-06-13T13:35:44.744Z,100306.78
2018-06-13T13:38:14.357Z,100300.32
2018-06-13T13:40:44.969Z,100297.94
2018-06-13T13:43:14.707Z,100303.23
2018-06-13T13:45:44.637Z,100297.84
2018-06-13T13:48:14.307Z,100306.17
2018-06-13T13:50:43.900Z,100308.89
2018-06-13T13:53:13.543Z,100297.69
2018-06-13T13:55:43.214Z,100316.29
2018-06-13T13:58:12.861Z,100312.95
2018-06-13T14:00:42.485Z,100314.17
2018-06-13T14:03:12.033Z,100316.78
2018-06-13T14:05:41.661Z,100308.76
2018-06-13T14:08:10.997Z,100310.83
2018-06-13T14:10:40.632Z,100306.02
2018-06-13T14:13:10.380Z,100307.42
2018-06-13T14:15:40.135Z,100303.22
2018-06-13T14:18:09.860Z,100300.64
2018-06-13T14:20:42.396Z,100306.18
2018-06-13T14:23:12.028Z,100302.09
2018-06-13T14:25:41.728Z,100306.03
2018-06-13T14:28:11.385Z,100305.70
2018-06-13T14:30:40.957Z,100315.24
2018-06-13T14:33:10.744Z,100306.67
2018-06-13T14:35:40.414Z,100313.34
2018-06-13T14:38:10.124Z,100311.41
2018-06-13T14:40:39.785Z,100307.38
2018-06-13T14:43:09.446Z,100297.31
2018-06-13T14:45:39.279Z,100303.57
2018-06-13T14:48:09.069Z,100300.11
2018-06-13T14:50:38.866Z,100297.73
2018-06-13T14:53:09.349Z,100296.23
2018-06-13T14:55:47.265Z,100298.88
2018-06-13T14:58:16.898Z,100300.23
2018-06-13T15:00:46.588Z,100305.33
2018-06-13T15:03:16.276Z,100299.79
2018-06-13T15:05:45.946Z,100304.27
2018-06-13T15:08:15.743Z,100308.19
2018-06-13T15:10:45.516Z,100311.19
2018-06-13T15:13:15.669Z,100312.21
2018-06-13T15:15:45.519Z,100309.43
2018-06-13T15:18:15.232Z,100308.18
2018-06-13T15:20:44.981Z,100310.50
2018-06-13T15:23:14.702Z,100298.70
2018-06-13T15:25:44.339Z,100294.04
2018-06-13T15:28:14.041Z,100298.61
2018-06-13T15:30:43.663Z,100290.83
2018-06-13T15:33:13.404Z,100299.44
2018-06-13T15:35:43.104Z,100292.97
2018-06-13T15:38:12.749Z,100290.28
2018-06-13T15:40:42.505Z,100300.32
2018-06-13T15:43:12.338Z,100297.64
2018-06-13T15:45:42.264Z,100290.59
2018-06-13T15:48:11.960Z,100290.12
2018-06-13T15:50:41.693Z,100286.80
2018-06-13T15:53:11.411Z,100280.53
2018-06-13T15:55:41.234Z,100283.30
2018-06-13T15:58:10.894Z,100286.88
2018-06-13T16:00:40.694Z,100286.56
2018-06-13T16:03:10.355Z,100292.27
2018-06-13T16:05:40.130Z,100289.97
2018-06-13T16:08:09.819Z,100294.04
2018-06-13T16:10:39.538Z,100305.53
2018-06-13T16:13:09.209Z,100301.36
2018-06-13T16:15:38.858Z,100300.42
2018-06-13T16:18:08.584Z,100300.75
2018-06-13T16:20:38.273Z,100301.20
2018-06-13T16:23:07.897Z,100299.34
2018-06-13T16:25:38.470Z,100299.26
2018-06-13T16:28:08.089Z,100300.97
2018-06-13T16:30:37.941Z,100298.17
2018-06-13T16:33:07.630Z,100307.28
2018-06-13T16:35:37.300Z,100314.16
2018-06-13T16:38:07.029Z,100310.10
2018-06-13T16:40:37.018Z,100305.61
2018-06-13T16:43:06.698Z,100308.55
2018-06-13T16:45:36.281Z,100306.95
2018-06-13T16:48:06.279Z,100315.55
2018-06-13T16:50:50.979Z,100319.64
2018-06-13T16:55:32.974Z,100327.23
2018-06-13T16:58:02.657Z,100323.02
2018-06-13T17:00:32.370Z,100326.31
2018-06-13T17:03:02.009Z,100326.89
2018-06-13T17:05:35.002Z,100331.26
2018-06-13T17:08:04.922Z,100332.09
2018-06-13T17:23:35.126Z,100345.44
2018-06-13T17:26:04.909Z,100355.27
2018-06-13T17:28:34.862Z,100355.95
2018-06-13T17:31:04.609Z,100358.09
2018-06-13T17:33:34.271Z,100364.48
2018-06-13T17:36:03.921Z,100371.97
2018-06-13T17:38:33.594Z,100363.80
2018-06-13T17:41:03.445Z,100363.31
2018-06-13T17:43:33.220Z,100362.94
2018-06-13T17:46:02.926Z,100375.34
2018-06-13T17:48:32.552Z,100373.86
2018-06-13T17:51:02.344Z,100382.24
2018-06-13T17:53:31.973Z,100380.98
2018-06-13T17:56:01.797Z,100387.91
2018-06-13T17:58:31.345Z,100382.94
2018-06-13T18:01:00.954Z,100382.53
2018-06-13T18:03:30.528Z,100384.26
2018-06-13T18:06:00.250Z,100385.69
2018-06-13T18:08:30.410Z,100390.86
2018-06-13T18:11:00.053Z,100388.73
2018-06-13T18:13:29.801Z,100383.30
2018-06-13T18:15:59.704Z,100388.98
2018-06-13T18:18:29.450Z,100391.89
2018-06-13T18:20:58.993Z,100392.44
2018-06-13T18:23:28.670Z,100389.11
2018-06-13T18:25:58.401Z,100393.31
2018-06-13T18:28:28.094Z,100398.33
2018-06-13T18:30:57.753Z,100393.23
2018-06-13T18:33:27.476Z,100392.34
2018-06-13T18:35:57.117Z,100389.84
2018-06-13T18:38:33.458Z,100393.12
2018-06-13T18:41:03.210Z,100387.45
2018-06-13T18:43:32.976Z,100386.50
2018-06-13T18:46:02.738Z,100396.11
2018-06-13T18:48:32.423Z,100396.98
2018-06-13T18:51:02.104Z,100390.07
2018-06-13T18:53:31.800Z,100391.95
2018-06-13T18:56:01.474Z,100396.42
2018-06-13T18:58:31.241Z,100394.69
2018-06-13T19:01:01.005Z,100398.55
2018-06-13T19:03:31.204Z,100403.02
2018-06-13T19:06:01.036Z,100413.08
2018-06-13T19:08:31.308Z,100415.20
2018-06-13T19:11:01.207Z,100410.39
2018-06-13T19:13:31.067Z,100411.03
2018-06-13T19:16:00.889Z,100407.80
2018-06-13T19:18:30.628Z,100403.13
2018-06-13T19:21:00.377Z,100400.72
2018-06-13T19:23:30.241Z,100403.97
2018-06-13T19:25:59.902Z,100409.97
2018-06-13T19:28:29.587Z,100412.77
2018-06-13T19:30:59.303Z,100415.77
2018-06-13T19:33:28.980Z,100421.62
2018-06-13T19:35:58.622Z,100426.64
2018-06-13T19:38:28.471Z,100424.39
2018-06-13T19:40:58.156Z,100421.55
2018-06-13T19:43:33.020Z,100422.70
2018-06-13T19:46:02.776Z,100422.91
2018-06-13T19:48:37.612Z,100427.61
2018-06-13T19:51:07.222Z,100424.86
2018-06-13T19:53:42.097Z,100422.38
2018-06-13T19:56:12.840Z,100424.28
2018-06-13T19:58:42.592Z,100427.19
2018-06-13T20:01:13.399Z,100423.48
2018-06-13T20:04:47.850Z,100436.94
2018-06-13T20:07:22.609Z,100437.31
2018-06-13T20:09:52.351Z,100451.11
2018-06-13T20:12:43.042Z,100452.79
2018-06-13T20:15:18.053Z,100449.83
2018-06-13T20:20:00.344Z,100455.87
2018-06-13T20:22:30.030Z,100460.36
2018-06-13T20:25:04.639Z,100458.55
2018-06-13T20:27:39.582Z,100456.56
2018-06-13T20:30:14.532Z,100459.23
2018-06-13T20:32:44.293Z,100468.20
2018-06-13T20:35:14.283Z,100460.65
2018-06-13T20:37:44.160Z,100465.75
2018-06-13T20:40:13.883Z,100466.16
2018-06-13T20:42:43.724Z,100467.86
2018-06-13T20:45:13.571Z,100457.45
2018-06-13T20:47:43.260Z,100464.86
2018-06-13T20:50:12.965Z,100475.44
2018-06-13T20:52:42.676Z,100470.61
2018-06-13T20:55:12.326Z,100469.27
2018-06-13T20:57:42.139Z,100473.05
2018-06-13T21:00:11.800Z,100478.22
2018-06-13T21:02:41.400Z,100469.54
2018-06-13T21:05:11.164Z,100466.20
2018-06-13T21:07:40.787Z,100469.98
2018-06-13T21:10:10.560Z,100473.55
2018-06-13T21:12:40.248Z,100472.66
2018-06-13T21:15:10.037Z,100472.67
2018-06-13T21:17:39.919Z,100462.72
2018-06-13T21:20:09.674Z,100462.45
2018-06-13T21:22:39.441Z,100461.80
2018-06-13T21:25:09.287Z,100458.89
2018-06-13T21:27:39.004Z,100460.86
2018-06-13T21:30:08.954Z,100457.67
2018-06-13T21:32:38.825Z,100460.07
2018-06-13T21:35:08.735Z,100454.58
2018-06-13T21:37:38.595Z,100452.95
2018-06-13T21:40:08.437Z,100454.67
2018-06-13T21:42:38.156Z,100459.88
2018-06-13T21:45:07.894Z,100459.50
2018-06-13T21:47:37.573Z,100457.25
2018-06-13T21:50:07.367Z,100463.36
2018-06-13T21:52:36.965Z,100464.55
2018-06-13T21:55:06.668Z,100468.48
2018-06-13T21:57:36.246Z,100460.52
2018-06-13T22:00:09.697Z,100453.13
2018-06-13T22:02:39.524Z,100449.45
2018-06-13T22:05:09.282Z,100443.48
2018-06-13T22:07:39.150Z,100440.95
2018-06-13T22:10:08.949Z,100450.17
2018-06-13T22:12:38.730Z,100440.21
2018-06-13T22:15:12.644Z,100446.08
2018-06-13T22:17:42.396Z,100437.58
2018-06-13T22:20:12.100Z,100444.96
2018-06-13T22:22:41.474Z,100451.42
2018-06-13T22:25:11.294Z,100454.45
2018-06-13T22:27:40.940Z,100447.52
2018-06-13T22:30:10.444Z,100446.71
2018-06-13T22:32:39.998Z,100442.75
2018-06-13T22:35:09.898Z,100453.61
2018-06-13T22:37:39.529Z,100447.72
2018-06-13T22:40:09.325Z,100445.80
2018-06-13T22:42:38.960Z,100444.34
2018-06-13T22:45:08.601Z,100451.30
2018-06-13T22:47:38.258Z,100444.83
2018-06-13T22:50:07.940Z,100447.66
2018-06-13T22:52:37.641Z,100448.62
2018-06-13T22:55:07.469Z,100442.28
2018-06-13T22:57:37.147Z,100444.03
2018-06-13T23:00:06.936Z,100438.53
2018-06-13T23:02:36.530Z,100436.22
2018-06-13T23:05:06.269Z,100431.30
2018-06-13T23:07:35.933Z,100432.76
2018-06-13T23:10:05.685Z,100431.92
2018-06-13T23:12:35.257Z,100431.23
2018-06-13T23:15:05.248Z,100431.07
2018-06-13T23:17:34.850Z,100432.23
2018-06-13T23:20:04.471Z,100439.52
2018-06-13T23:22:34.194Z,100436.05
2018-06-13T23:25:03.768Z,100437.46
2018-06-13T23:27:33.379Z,100430.51
2018-06-13T23:30:03.036Z,100431.06
2018-06-13T23:32:32.677Z,100429.73
2018-06-13T23:35:02.318Z,100429.44
2018-06-13T23:37:31.911Z,100424.48
2018-06-13T23:40:01.625Z,100425.80
2018-06-13T23:42:31.202Z,100434.71
2018-06-13T23:45:00.781Z,100433.26
2018-06-13T23:47:30.416Z,100431.93
2018-06-13T23:50:00.036Z,100434.20
2018-06-13T23:52:29.627Z,100431.77
2018-06-13T23:54:59.304Z,100433.95
2018-06-13T23:57:28.964Z,100432.85
2018-06-13T23:59:58.242Z,100428.14
